sensor_id;sensor_type;location;lat;lon;timestamp;temperature;humidity
5392;DHT22;2719;53.624;9.786;2023-04-03T00:02:19;5.00;99.90
5392;DHT22;2719;53.624;9.786;2023-04-03T00:04:47;5.00;99.90
5392;DHT22;2719;53.624;9.786;2023-04-03T00:07:13;5.00;99.90
5392;DHT22;2719;53.624;9.786;2023-04-03T00:09:41;5.00;99.90
5392;DHT22;2719;53.624;9.786;2023-04-03T00:12:07;5.00;99.90
5392;DHT22;2719;53.624;9.786;2023-04-03T00:14:34;5.00;99.90
5392;DHT22;2719;53.624;9.786;2023-04-03T00:17:00;5.00;99.90
5392;DHT22;2719;53.624;9.786;2023-04-03T00:19:27;4.90;99.90
5392;DHT22;2719;53.624;9.786;2023-04-03T00:21:55;4.90;99.90
5392;DHT22;2719;53.624;9.786;2023-04-03T00:24:21;4.80;99.90
5392;DHT22;2719;53.624;9.786;2023-04-03T00:26:48;4.80;99.90
5392;DHT22;2719;53.624;9.786;2023-04-03T00:29:15;4.80;99.90
5392;DHT22;2719;53.624;9.786;2023-04-03T00:31:41;4.80;99.90
5392;DHT22;2719;53.624;9.786;2023-04-03T00:34:08;4.80;99.90
5392;DHT22;2719;53.624;9.786;2023-04-03T00:36:35;4.80;99.90
5392;DHT22;2719;53.624;9.786;2023-04-03T00:39:03;4.80;99.90
5392;DHT22;2719;53.624;9.786;2023-04-03T00:41:30;4.80;99.90
5392;DHT22;2719;53.624;9.786;2023-04-03T00:43:57;4.80;99.90
5392;DHT22;2719;53.624;9.786;2023-04-03T00:46:23;4.80;99.90
5392;DHT22;2719;53.624;9.786;2023-04-03T00:48:51;4.70;99.90
5392;DHT22;2719;53.624;9.786;2023-04-03T00:51:20;4.70;99.90
5392;DHT22;2719;53.624;9.786;2023-04-03T00:53:52;4.70;99.90
5392;DHT22;2719;53.624;9.786;2023-04-03T00:56:24;4.70;99.90
5392;DHT22;2719;53.624;9.786;2023-04-03T00:58:53;4.70;99.90
5392;DHT22;2719;53.624;9.786;2023-04-03T01:01:24;4.70;99.90
5392;DHT22;2719;53.624;9.786;2023-04-03T01:03:51;4.70;99.90
5392;DHT22;2719;53.624;9.786;2023-04-03T01:06:23;4.70;99.90
5392;DHT22;2719;53.624;9.786;2023-04-03T01:08:51;4.70;99.90
5392;DHT22;2719;53.624;9.786;2023-04-03T01:11:18;4.70;99.90
5392;DHT22;2719;53.624;9.786;2023-04-03T01:13:47;4.60;99.90
5392;DHT22;2719;53.624;9.786;2023-04-03T01:16:15;4.60;99.90
5392;DHT22;2719;53.624;9.786;2023-04-03T01:18:42;4.60;99.90
5392;DHT22;2719;53.624;9.786;2023-04-03T01:21:36;4.60;99.90
5392;DHT22;2719;53.624;9.786;2023-04-03T01:24:27;4.60;99.90
5392;DHT22;2719;53.624;9.786;2023-04-03T01:26:57;4.50;99.90
5392;DHT22;2719;53.624;9.786;2023-04-03T01:29:25;4.50;99.90
5392;DHT22;2719;53.624;9.786;2023-04-03T01:31:55;4.50;99.90
5392;DHT22;2719;53.624;9.786;2023-04-03T01:34:23;4.50;99.90
5392;DHT22;2719;53.624;9.786;2023-04-03T01:36:50;4.50;99.90
5392;DHT22;2719;53.624;9.786;2023-04-03T01:39:17;4.50;99.90
5392;DHT22;2719;53.624;9.786;2023-04-03T01:41:44;4.40;99.90
5392;DHT22;2719;53.624;9.786;2023-04-03T01:44:11;4.40;99.90
5392;DHT22;2719;53.624;9.786;2023-04-03T01:46:38;4.30;99.90
5392;DHT22;2719;53.624;9.786;2023-04-03T01:49:06;4.40;99.90
5392;DHT22;2719;53.624;9.786;2023-04-03T01:51:33;4.40;99.90
5392;DHT22;2719;53.624;9.786;2023-04-03T01:53:59;4.40;99.90
5392;DHT22;2719;53.624;9.786;2023-04-03T01:56:26;4.40;99.90
5392;DHT22;2719;53.624;9.786;2023-04-03T01:58:53;4.40;99.90
5392;DHT22;2719;53.624;9.786;2023-04-03T02:01:19;4.40;99.90
5392;DHT22;2719;53.624;9.786;2023-04-03T02:03:46;4.40;99.90
5392;DHT22;2719;53.624;9.786;2023-04-03T02:06:14;4.40;99.90
5392;DHT22;2719;53.624;9.786;2023-04-03T02:08:41;4.40;99.90
5392;DHT22;2719;53.624;9.786;2023-04-03T02:11:07;4.40;99.90
5392;DHT22;2719;53.624;9.786;2023-04-03T02:13:34;4.40;99.90
5392;DHT22;2719;53.624;9.786;2023-04-03T02:16:06;4.40;99.90
5392;DHT22;2719;53.624;9.786;2023-04-03T02:18:33;4.30;99.90
5392;DHT22;2719;53.624;9.786;2023-04-03T02:20:59;4.30;99.90
5392;DHT22;2719;53.624;9.786;2023-04-03T02:23:27;4.30;99.90
5392;DHT22;2719;53.624;9.786;2023-04-03T02:26:05;4.30;99.90
5392;DHT22;2719;53.624;9.786;2023-04-03T02:28:32;4.30;99.90
5392;DHT22;2719;53.624;9.786;2023-04-03T02:30:59;4.20;99.90
5392;DHT22;2719;53.624;9.786;2023-04-03T02:33:26;4.20;99.90
5392;DHT22;2719;53.624;9.786;2023-04-03T02:35:53;4.20;99.90
5392;DHT22;2719;53.624;9.786;2023-04-03T02:38:20;4.10;99.90
5392;DHT22;2719;53.624;9.786;2023-04-03T02:40:49;4.10;99.90
5392;DHT22;2719;53.624;9.786;2023-04-03T02:43:16;4.10;99.90
5392;DHT22;2719;53.624;9.786;2023-04-03T02:45:43;4.10;99.90
5392;DHT22;2719;53.624;9.786;2023-04-03T02:48:11;4.10;99.90
5392;DHT22;2719;53.624;9.786;2023-04-03T02:50:37;4.00;99.90
5392;DHT22;2719;53.624;9.786;2023-04-03T02:53:04;4.00;99.90
5392;DHT22;2719;53.624;9.786;2023-04-03T02:55:30;4.00;99.90
5392;DHT22;2719;53.624;9.786;2023-04-03T02:57:58;4.00;99.90
5392;DHT22;2719;53.624;9.786;2023-04-03T03:00:25;4.00;99.90
5392;DHT22;2719;53.624;9.786;2023-04-03T03:02:52;4.00;99.90
5392;DHT22;2719;53.624;9.786;2023-04-03T03:05:18;4.00;99.90
5392;DHT22;2719;53.624;9.786;2023-04-03T03:07:45;4.00;99.90
5392;DHT22;2719;53.624;9.786;2023-04-03T03:10:12;4.00;99.90
5392;DHT22;2719;53.624;9.786;2023-04-03T03:12:38;3.90;99.90
5392;DHT22;2719;53.624;9.786;2023-04-03T03:15:08;4.00;99.90
5392;DHT22;2719;53.624;9.786;2023-04-03T03:17:35;3.90;99.90
5392;DHT22;2719;53.624;9.786;2023-04-03T03:20:02;3.90;99.90
5392;DHT22;2719;53.624;9.786;2023-04-03T03:22:29;3.80;99.90
5392;DHT22;2719;53.624;9.786;2023-04-03T03:24:56;3.80;99.90
5392;DHT22;2719;53.624;9.786;2023-04-03T03:27:22;3.80;99.90
5392;DHT22;2719;53.624;9.786;2023-04-03T03:29:50;3.80;99.90
5392;DHT22;2719;53.624;9.786;2023-04-03T03:32:18;3.80;99.90
5392;DHT22;2719;53.624;9.786;2023-04-03T03:34:44;3.80;99.90
5392;DHT22;2719;53.624;9.786;2023-04-03T03:37:11;3.70;99.90
5392;DHT22;2719;53.624;9.786;2023-04-03T03:39:38;3.70;99.90
5392;DHT22;2719;53.624;9.786;2023-04-03T03:42:05;3.70;99.90
5392;DHT22;2719;53.624;9.786;2023-04-03T03:44:31;3.60;99.90
5392;DHT22;2719;53.624;9.786;2023-04-03T03:46:58;3.60;99.90
5392;DHT22;2719;53.624;9.786;2023-04-03T03:49:26;3.50;99.90
5392;DHT22;2719;53.624;9.786;2023-04-03T03:51:53;3.50;99.90
5392;DHT22;2719;53.624;9.786;2023-04-03T03:54:19;3.50;99.90
5392;DHT22;2719;53.624;9.786;2023-04-03T03:56:46;3.60;99.90
5392;DHT22;2719;53.624;9.786;2023-04-03T03:59:13;3.60;99.90
5392;DHT22;2719;53.624;9.786;2023-04-03T04:01:39;3.60;99.90
5392;DHT22;2719;53.624;9.786;2023-04-03T04:04:06;3.60;99.90
5392;DHT22;2719;53.624;9.786;2023-04-03T04:06:34;3.60;99.90
5392;DHT22;2719;53.624;9.786;2023-04-03T04:09:01;3.50;99.90
5392;DHT22;2719;53.624;9.786;2023-04-03T04:11:27;3.50;99.90
5392;DHT22;2719;53.624;9.786;2023-04-03T04:13:54;3.50;99.90
5392;DHT22;2719;53.624;9.786;2023-04-03T04:16:20;3.50;99.90
5392;DHT22;2719;53.624;9.786;2023-04-03T04:18:47;3.50;99.90
5392;DHT22;2719;53.624;9.786;2023-04-03T04:21:14;3.40;99.90
5392;DHT22;2719;53.624;9.786;2023-04-03T04:23:41;3.40;99.90
5392;DHT22;2719;53.624;9.786;2023-04-03T04:26:08;3.40;99.90
5392;DHT22;2719;53.624;9.786;2023-04-03T04:28:35;3.40;99.90
5392;DHT22;2719;53.624;9.786;2023-04-03T04:31:02;3.40;99.90
5392;DHT22;2719;53.624;9.786;2023-04-03T04:33:29;3.30;99.90
5392;DHT22;2719;53.624;9.786;2023-04-03T04:35:55;3.30;99.90
5392;DHT22;2719;53.624;9.786;2023-04-03T04:38:22;3.30;99.90
5392;DHT22;2719;53.624;9.786;2023-04-03T04:40:50;3.30;99.90
5392;DHT22;2719;53.624;9.786;2023-04-03T04:43:17;3.30;99.90
5392;DHT22;2719;53.624;9.786;2023-04-03T04:45:43;3.30;99.90
5392;DHT22;2719;53.624;9.786;2023-04-03T04:48:10;3.30;99.90
5392;DHT22;2719;53.624;9.786;2023-04-03T04:50:37;3.30;99.90
5392;DHT22;2719;53.624;9.786;2023-04-03T04:53:03;3.30;99.90
5392;DHT22;2719;53.624;9.786;2023-04-03T04:55:30;3.30;99.90
5392;DHT22;2719;53.624;9.786;2023-04-03T04:57:58;3.30;99.90
5392;DHT22;2719;53.624;9.786;2023-04-03T05:00:25;3.30;99.90
5392;DHT22;2719;53.624;9.786;2023-04-03T05:02:52;3.30;99.90
5392;DHT22;2719;53.624;9.786;2023-04-03T05:05:18;3.30;99.90
5392;DHT22;2719;53.624;9.786;2023-04-03T05:07:45;3.30;99.90
5392;DHT22;2719;53.624;9.786;2023-04-03T05:10:11;3.30;99.90
5392;DHT22;2719;53.624;9.786;2023-04-03T05:12:38;3.30;99.90
5392;DHT22;2719;53.624;9.786;2023-04-03T05:15:07;3.30;99.90
5392;DHT22;2719;53.624;9.786;2023-04-03T05:17:34;3.30;99.90
5392;DHT22;2719;53.624;9.786;2023-04-03T05:20:01;3.30;99.90
5392;DHT22;2719;53.624;9.786;2023-04-03T05:22:29;3.30;99.90
5392;DHT22;2719;53.624;9.786;2023-04-03T05:24:56;3.30;99.90
5392;DHT22;2719;53.624;9.786;2023-04-03T05:27:22;3.30;99.90
5392;DHT22;2719;53.624;9.786;2023-04-03T05:29:50;3.30;99.90
5392;DHT22;2719;53.624;9.786;2023-04-03T05:32:17;3.30;99.90
5392;DHT22;2719;53.624;9.786;2023-04-03T05:34:44;3.30;99.90
5392;DHT22;2719;53.624;9.786;2023-04-03T05:37:11;3.40;99.90
5392;DHT22;2719;53.624;9.786;2023-04-03T05:39:38;3.40;99.90
5392;DHT22;2719;53.624;9.786;2023-04-03T05:42:06;3.40;99.90
5392;DHT22;2719;53.624;9.786;2023-04-03T05:44:33;3.40;99.90
5392;DHT22;2719;53.624;9.786;2023-04-03T05:46:59;3.50;99.90
5392;DHT22;2719;53.624;9.786;2023-04-03T05:49:27;3.50;99.90
5392;DHT22;2719;53.624;9.786;2023-04-03T05:51:54;3.50;99.90
5392;DHT22;2719;53.624;9.786;2023-04-03T05:54:23;3.50;99.90
5392;DHT22;2719;53.624;9.786;2023-04-03T05:56:50;3.50;99.90
5392;DHT22;2719;53.624;9.786;2023-04-03T05:59:18;3.50;99.90
5392;DHT22;2719;53.624;9.786;2023-04-03T06:01:45;3.60;99.90
5392;DHT22;2719;53.624;9.786;2023-04-03T06:04:12;3.60;99.90
5392;DHT22;2719;53.624;9.786;2023-04-03T06:06:45;3.60;99.90
5392;DHT22;2719;53.624;9.786;2023-04-03T06:09:12;3.60;99.90
5392;DHT22;2719;53.624;9.786;2023-04-03T06:11:39;3.70;99.90
5392;DHT22;2719;53.624;9.786;2023-04-03T06:14:07;3.70;99.90
5392;DHT22;2719;53.624;9.786;2023-04-03T06:16:34;3.80;99.90
5392;DHT22;2719;53.624;9.786;2023-04-03T06:19:01;3.90;99.90
5392;DHT22;2719;53.624;9.786;2023-04-03T06:21:28;4.00;99.90
5392;DHT22;2719;53.624;9.786;2023-04-03T06:23:57;4.10;99.90
5392;DHT22;2719;53.624;9.786;2023-04-03T06:26:23;4.10;99.90
5392;DHT22;2719;53.624;9.786;2023-04-03T06:28:50;4.20;99.90
5392;DHT22;2719;53.624;9.786;2023-04-03T06:31:17;4.30;99.90
5392;DHT22;2719;53.624;9.786;2023-04-03T06:33:43;4.40;99.90
5392;DHT22;2719;53.624;9.786;2023-04-03T06:36:10;4.50;99.90
5392;DHT22;2719;53.624;9.786;2023-04-03T06:38:37;4.50;99.90
5392;DHT22;2719;53.624;9.786;2023-04-03T06:41:05;4.60;99.90
5392;DHT22;2719;53.624;9.786;2023-04-03T06:43:32;4.50;99.90
5392;DHT22;2719;53.624;9.786;2023-04-03T06:45:59;4.50;99.90
5392;DHT22;2719;53.624;9.786;2023-04-03T06:48:25;4.40;99.90
5392;DHT22;2719;53.624;9.786;2023-04-03T06:50:53;4.50;99.90
5392;DHT22;2719;53.624;9.786;2023-04-03T06:53:19;4.60;99.90
5392;DHT22;2719;53.624;9.786;2023-04-03T06:55:46;4.70;99.90
5392;DHT22;2719;53.624;9.786;2023-04-03T06:58:14;4.90;99.90
5392;DHT22;2719;53.624;9.786;2023-04-03T07:00:42;5.00;99.90
5392;DHT22;2719;53.624;9.786;2023-04-03T07:03:09;5.10;99.90
5392;DHT22;2719;53.624;9.786;2023-04-03T07:05:36;5.20;99.90
5392;DHT22;2719;53.624;9.786;2023-04-03T07:08:02;5.40;99.90
5392;DHT22;2719;53.624;9.786;2023-04-03T07:10:29;5.40;99.90
5392;DHT22;2719;53.624;9.786;2023-04-03T07:12:56;5.50;99.90
5392;DHT22;2719;53.624;9.786;2023-04-03T07:15:24;5.60;99.90
5392;DHT22;2719;53.624;9.786;2023-04-03T07:17:51;5.70;99.90
5392;DHT22;2719;53.624;9.786;2023-04-03T07:20:17;5.70;99.90
5392;DHT22;2719;53.624;9.786;2023-04-03T07:22:44;5.90;99.90
5392;DHT22;2719;53.624;9.786;2023-04-03T07:25:11;6.00;99.90
5392;DHT22;2719;53.624;9.786;2023-04-03T07:27:37;6.10;99.90
5392;DHT22;2719;53.624;9.786;2023-04-03T07:30:05;6.20;99.90
5392;DHT22;2719;53.624;9.786;2023-04-03T07:32:33;6.30;99.90
5392;DHT22;2719;53.624;9.786;2023-04-03T07:35:00;6.40;99.90
5392;DHT22;2719;53.624;9.786;2023-04-03T07:37:27;6.50;99.90
5392;DHT22;2719;53.624;9.786;2023-04-03T07:39:54;6.60;99.90
5392;DHT22;2719;53.624;9.786;2023-04-03T07:42:22;6.60;99.90
5392;DHT22;2719;53.624;9.786;2023-04-03T07:44:49;6.60;99.90
5392;DHT22;2719;53.624;9.786;2023-04-03T07:47:15;6.80;99.90
5392;DHT22;2719;53.624;9.786;2023-04-03T07:49:44;6.90;99.90
5392;DHT22;2719;53.624;9.786;2023-04-03T07:52:11;6.90;99.90
5392;DHT22;2719;53.624;9.786;2023-04-03T07:54:38;6.80;99.90
5392;DHT22;2719;53.624;9.786;2023-04-03T07:57:05;7.00;99.90
5392;DHT22;2719;53.624;9.786;2023-04-03T07:59:32;7.10;99.90
5392;DHT22;2719;53.624;9.786;2023-04-03T08:01:58;7.20;99.90
5392;DHT22;2719;53.624;9.786;2023-04-03T08:04:25;7.30;99.90
5392;DHT22;2719;53.624;9.786;2023-04-03T08:06:53;7.50;99.90
5392;DHT22;2719;53.624;9.786;2023-04-03T08:09:20;7.50;99.90
5392;DHT22;2719;53.624;9.786;2023-04-03T08:11:47;7.50;99.90
5392;DHT22;2719;53.624;9.786;2023-04-03T08:14:14;7.50;99.90
5392;DHT22;2719;53.624;9.786;2023-04-03T08:16:44;7.60;99.90
5392;DHT22;2719;53.624;9.786;2023-04-03T08:19:11;7.60;99.90
5392;DHT22;2719;53.624;9.786;2023-04-03T08:21:39;7.60;99.90
5392;DHT22;2719;53.624;9.786;2023-04-03T08:24:08;7.40;99.90
5392;DHT22;2719;53.624;9.786;2023-04-03T08:26:35;7.40;99.90
5392;DHT22;2719;53.624;9.786;2023-04-03T08:29:03;7.30;99.90
5392;DHT22;2719;53.624;9.786;2023-04-03T08:31:29;7.40;99.90
5392;DHT22;2719;53.624;9.786;2023-04-03T08:33:57;7.50;99.90
5392;DHT22;2719;53.624;9.786;2023-04-03T08:36:25;7.50;99.90
5392;DHT22;2719;53.624;9.786;2023-04-03T08:38:53;7.50;99.90
5392;DHT22;2719;53.624;9.786;2023-04-03T08:41:29;7.60;99.90
5392;DHT22;2719;53.624;9.786;2023-04-03T08:44:02;7.60;99.90
5392;DHT22;2719;53.624;9.786;2023-04-03T08:46:40;7.50;99.90
5392;DHT22;2719;53.624;9.786;2023-04-03T08:49:14;7.50;99.30
5392;DHT22;2719;53.624;9.786;2023-04-03T08:51:47;7.70;99.90
5392;DHT22;2719;53.624;9.786;2023-04-03T08:54:22;7.70;99.90
5392;DHT22;2719;53.624;9.786;2023-04-03T08:56:52;7.90;99.90
5392;DHT22;2719;53.624;9.786;2023-04-03T08:59:24;7.80;99.60
5392;DHT22;2719;53.624;9.786;2023-04-03T09:01:53;7.80;98.90
5392;DHT22;2719;53.624;9.786;2023-04-03T09:04:20;7.70;98.90
5392;DHT22;2719;53.624;9.786;2023-04-03T09:06:50;7.70;99.90
5392;DHT22;2719;53.624;9.786;2023-04-03T09:09:29;7.80;99.80
5392;DHT22;2719;53.624;9.786;2023-04-03T09:12:04;7.90;99.90
5392;DHT22;2719;53.624;9.786;2023-04-03T09:14:38;7.80;99.40
5392;DHT22;2719;53.624;9.786;2023-04-03T09:17:14;7.80;98.40
5392;DHT22;2719;53.624;9.786;2023-04-03T09:19:47;7.80;98.60
5392;DHT22;2719;53.624;9.786;2023-04-03T09:22:18;7.70;97.80
5392;DHT22;2719;53.624;9.786;2023-04-03T09:24:50;7.70;98.50
5392;DHT22;2719;53.624;9.786;2023-04-03T09:27:20;7.70;98.30
5392;DHT22;2719;53.624;9.786;2023-04-03T09:29:46;7.60;98.80
5392;DHT22;2719;53.624;9.786;2023-04-03T09:32:21;7.70;98.10
5392;DHT22;2719;53.624;9.786;2023-04-03T09:34:49;7.80;97.40
5392;DHT22;2719;53.624;9.786;2023-04-03T09:37:36;7.90;98.20
5392;DHT22;2719;53.624;9.786;2023-04-03T09:40:05;8.00;97.30
5392;DHT22;2719;53.624;9.786;2023-04-03T09:42:40;8.20;97.60
5392;DHT22;2719;53.624;9.786;2023-04-03T09:45:23;8.00;96.90
5392;DHT22;2719;53.624;9.786;2023-04-03T09:48:05;8.00;97.00
5392;DHT22;2719;53.624;9.786;2023-04-03T09:50:33;8.00;97.40
5392;DHT22;2719;53.624;9.786;2023-04-03T09:53:05;8.20;98.50
5392;DHT22;2719;53.624;9.786;2023-04-03T09:55:32;8.40;98.40
5392;DHT22;2719;53.624;9.786;2023-04-03T09:58:03;8.50;99.40
5392;DHT22;2719;53.624;9.786;2023-04-03T10:00:33;8.50;98.70
5392;DHT22;2719;53.624;9.786;2023-04-03T10:03:00;8.70;97.90
5392;DHT22;2719;53.624;9.786;2023-04-03T10:05:31;8.80;97.10
5392;DHT22;2719;53.624;9.786;2023-04-03T10:08:10;8.80;96.60
5392;DHT22;2719;53.624;9.786;2023-04-03T10:10:38;8.70;95.20
5392;DHT22;2719;53.624;9.786;2023-04-03T10:13:09;8.70;95.80
5392;DHT22;2719;53.624;9.786;2023-04-03T10:15:42;8.70;95.60
5392;DHT22;2719;53.624;9.786;2023-04-03T10:18:27;8.70;95.50
5392;DHT22;2719;53.624;9.786;2023-04-03T10:20:58;8.80;95.50
5392;DHT22;2719;53.624;9.786;2023-04-03T10:23:28;8.90;95.70
5392;DHT22;2719;53.624;9.786;2023-04-03T10:26:06;9.10;96.60
5392;DHT22;2719;53.624;9.786;2023-04-03T10:28:43;9.10;96.50
5392;DHT22;2719;53.624;9.786;2023-04-03T10:31:14;9.20;95.00
5392;DHT22;2719;53.624;9.786;2023-04-03T10:33:53;9.20;94.90
5392;DHT22;2719;53.624;9.786;2023-04-03T10:36:31;9.50;94.90
5392;DHT22;2719;53.624;9.786;2023-04-03T10:39:03;9.70;94.60
5392;DHT22;2719;53.624;9.786;2023-04-03T10:41:43;10.00;93.90
5392;DHT22;2719;53.624;9.786;2023-04-03T10:44:18;10.10;94.30
5392;DHT22;2719;53.624;9.786;2023-04-03T10:46:48;10.20;94.50
5392;DHT22;2719;53.624;9.786;2023-04-03T10:49:25;10.30;94.10
5392;DHT22;2719;53.624;9.786;2023-04-03T10:52:00;10.10;93.60
5392;DHT22;2719;53.624;9.786;2023-04-03T10:54:36;9.80;93.60
5392;DHT22;2719;53.624;9.786;2023-04-03T10:57:06;9.40;93.40
5392;DHT22;2719;53.624;9.786;2023-04-03T10:59:38;9.10;93.40
5392;DHT22;2719;53.624;9.786;2023-04-03T11:02:12;8.90;94.60
5392;DHT22;2719;53.624;9.786;2023-04-03T11:04:43;8.70;94.00
5392;DHT22;2719;53.624;9.786;2023-04-03T11:07:14;8.70;94.30
5392;DHT22;2719;53.624;9.786;2023-04-03T11:09:44;8.90;94.70
5392;DHT22;2719;53.624;9.786;2023-04-03T11:12:15;9.20;95.40
5392;DHT22;2719;53.624;9.786;2023-04-03T11:14:47;9.50;94.80
5392;DHT22;2719;53.624;9.786;2023-04-03T11:17:25;9.70;94.10
5392;DHT22;2719;53.624;9.786;2023-04-03T11:20:00;10.00;92.70
5392;DHT22;2719;53.624;9.786;2023-04-03T11:22:30;10.30;92.70
5392;DHT22;2719;53.624;9.786;2023-04-03T11:25:03;10.40;93.00
5392;DHT22;2719;53.624;9.786;2023-04-03T11:27:37;10.30;91.10
5392;DHT22;2719;53.624;9.786;2023-04-03T11:30:13;10.20;92.10
5392;DHT22;2719;53.624;9.786;2023-04-03T11:35:58;9.60;92.00
5392;DHT22;2719;53.624;9.786;2023-04-03T11:38:28;9.80;92.70
5392;DHT22;2719;53.624;9.786;2023-04-03T11:40:57;9.70;92.80
5392;DHT22;2719;53.624;9.786;2023-04-03T11:43:26;9.80;93.20
5392;DHT22;2719;53.624;9.786;2023-04-03T11:45:58;10.00;93.00
5392;DHT22;2719;53.624;9.786;2023-04-03T11:48:50;10.10;92.30
5392;DHT22;2719;53.624;9.786;2023-04-03T11:51:40;9.90;92.00
5392;DHT22;2719;53.624;9.786;2023-04-03T11:54:46;9.70;90.80
5392;DHT22;2719;53.624;9.786;2023-04-03T11:57:43;9.60;91.40
5392;DHT22;2719;53.624;9.786;2023-04-03T12:06:58;10.30;88.70
5392;DHT22;2719;53.624;9.786;2023-04-03T12:09:32;10.50;87.40
5392;DHT22;2719;53.624;9.786;2023-04-03T12:12:01;10.70;89.20
5392;DHT22;2719;53.624;9.786;2023-04-03T12:14:47;10.70;87.90
5392;DHT22;2719;53.624;9.786;2023-04-03T12:17:22;10.70;86.00
5392;DHT22;2719;53.624;9.786;2023-04-03T12:19:49;10.90;88.70
5392;DHT22;2719;53.624;9.786;2023-04-03T12:22:19;11.10;88.00
5392;DHT22;2719;53.624;9.786;2023-04-03T12:24:48;11.10;86.30
5392;DHT22;2719;53.624;9.786;2023-04-03T12:27:33;11.10;88.00
5392;DHT22;2719;53.624;9.786;2023-04-03T12:30:15;11.20;87.80
5392;DHT22;2719;53.624;9.786;2023-04-03T12:32:58;10.80;84.70
5392;DHT22;2719;53.624;9.786;2023-04-03T12:35:31;11.10;87.50
5392;DHT22;2719;53.624;9.786;2023-04-03T12:38:20;11.00;84.80
5392;DHT22;2719;53.624;9.786;2023-04-03T12:40:55;11.20;87.00
5392;DHT22;2719;53.624;9.786;2023-04-03T12:43:33;11.30;89.10
5392;DHT22;2719;53.624;9.786;2023-04-03T12:46:09;11.10;88.00
5392;DHT22;2719;53.624;9.786;2023-04-03T12:48:39;10.60;87.80
5392;DHT22;2719;53.624;9.786;2023-04-03T12:51:14;10.40;89.60
5392;DHT22;2719;53.624;9.786;2023-04-03T12:53:44;10.20;88.50
5392;DHT22;2719;53.624;9.786;2023-04-03T12:56:23;10.00;89.50
5392;DHT22;2719;53.624;9.786;2023-04-03T12:58:51;9.90;89.50
5392;DHT22;2719;53.624;9.786;2023-04-03T13:01:21;10.00;89.20
5392;DHT22;2719;53.624;9.786;2023-04-03T13:03:49;10.10;88.40
5392;DHT22;2719;53.624;9.786;2023-04-03T13:06:20;10.30;87.90
5392;DHT22;2719;53.624;9.786;2023-04-03T13:08:54;10.70;85.50
5392;DHT22;2719;53.624;9.786;2023-04-03T13:11:23;11.00;87.00
5392;DHT22;2719;53.624;9.786;2023-04-03T13:13:55;11.30;85.90
5392;DHT22;2719;53.624;9.786;2023-04-03T13:16:22;11.50;85.10
5392;DHT22;2719;53.624;9.786;2023-04-03T13:18:51;11.90;85.40
5392;DHT22;2719;53.624;9.786;2023-04-03T13:21:19;11.90;82.30
5392;DHT22;2719;53.624;9.786;2023-04-03T13:23:49;12.10;81.40
5392;DHT22;2719;53.624;9.786;2023-04-03T13:26:20;12.50;86.20
5392;DHT22;2719;53.624;9.786;2023-04-03T13:28:48;12.70;81.80
5392;DHT22;2719;53.624;9.786;2023-04-03T13:31:20;12.70;80.50
5392;DHT22;2719;53.624;9.786;2023-04-03T13:33:57;12.60;78.90
5392;DHT22;2719;53.624;9.786;2023-04-03T13:36:27;12.60;81.80
5392;DHT22;2719;53.624;9.786;2023-04-03T13:39:00;12.60;80.40
5392;DHT22;2719;53.624;9.786;2023-04-03T13:41:30;12.70;78.20
5392;DHT22;2719;53.624;9.786;2023-04-03T13:44:16;12.30;78.90
5392;DHT22;2719;53.624;9.786;2023-04-03T13:46:44;12.20;80.60
5392;DHT22;2719;53.624;9.786;2023-04-03T13:49:19;12.00;78.50
5392;DHT22;2719;53.624;9.786;2023-04-03T13:51:46;12.40;83.70
5392;DHT22;2719;53.624;9.786;2023-04-03T13:54:19;12.50;77.60
5392;DHT22;2719;53.624;9.786;2023-04-03T13:56:53;12.80;80.00
5392;DHT22;2719;53.624;9.786;2023-04-03T13:59:23;13.00;78.10
5392;DHT22;2719;53.624;9.786;2023-04-03T14:01:54;12.90;78.90
5392;DHT22;2719;53.624;9.786;2023-04-03T14:04:23;12.80;76.80
5392;DHT22;2719;53.624;9.786;2023-04-03T14:06:51;13.00;76.80
5392;DHT22;2719;53.624;9.786;2023-04-03T14:09:19;12.90;76.10
5392;DHT22;2719;53.624;9.786;2023-04-03T14:11:49;13.10;77.60
5392;DHT22;2719;53.624;9.786;2023-04-03T14:14:18;13.10;76.00
5392;DHT22;2719;53.624;9.786;2023-04-03T14:16:50;13.00;74.40
5392;DHT22;2719;53.624;9.786;2023-04-03T14:19:21;12.80;76.50
5392;DHT22;2719;53.624;9.786;2023-04-03T14:21:48;12.90;77.20
5392;DHT22;2719;53.624;9.786;2023-04-03T14:24:16;12.80;76.70
5392;DHT22;2719;53.624;9.786;2023-04-03T14:26:45;12.80;77.70
5392;DHT22;2719;53.624;9.786;2023-04-03T14:29:14;13.10;79.60
5392;DHT22;2719;53.624;9.786;2023-04-03T14:31:42;13.10;79.60
5392;DHT22;2719;53.624;9.786;2023-04-03T14:34:10;13.10;76.30
5392;DHT22;2719;53.624;9.786;2023-04-03T14:36:37;13.40;78.80
5392;DHT22;2719;53.624;9.786;2023-04-03T14:39:05;12.80;77.00
5392;DHT22;2719;53.624;9.786;2023-04-03T14:41:33;12.70;78.20
5392;DHT22;2719;53.624;9.786;2023-04-03T14:43:59;12.20;77.30
5392;DHT22;2719;53.624;9.786;2023-04-03T14:46:30;12.00;78.90
5392;DHT22;2719;53.624;9.786;2023-04-03T14:48:57;11.90;78.70
5392;DHT22;2719;53.624;9.786;2023-04-03T14:51:24;11.80;79.20
5392;DHT22;2719;53.624;9.786;2023-04-03T14:53:51;12.10;77.30
5392;DHT22;2719;53.624;9.786;2023-04-03T14:56:20;12.30;77.60
5392;DHT22;2719;53.624;9.786;2023-04-03T14:58:48;11.90;78.50
5392;DHT22;2719;53.624;9.786;2023-04-03T15:01:16;11.90;78.30
5392;DHT22;2719;53.624;9.786;2023-04-03T15:03:44;11.90;81.50
5392;DHT22;2719;53.624;9.786;2023-04-03T15:06:12;12.00;79.20
5392;DHT22;2719;53.624;9.786;2023-04-03T15:08:39;11.90;81.20
5392;DHT22;2719;53.624;9.786;2023-04-03T15:11:08;11.80;80.10
5392;DHT22;2719;53.624;9.786;2023-04-03T15:13:35;11.50;79.80
5392;DHT22;2719;53.624;9.786;2023-04-03T15:16:02;11.50;81.10
5392;DHT22;2719;53.624;9.786;2023-04-03T15:18:34;11.50;79.80
5392;DHT22;2719;53.624;9.786;2023-04-03T15:21:03;11.70;82.40
5392;DHT22;2719;53.624;9.786;2023-04-03T15:23:30;11.80;80.70
5392;DHT22;2719;53.624;9.786;2023-04-03T15:25:57;12.10;83.60
5392;DHT22;2719;53.624;9.786;2023-04-03T15:28:27;12.20;82.90
5392;DHT22;2719;53.624;9.786;2023-04-03T15:30:54;11.60;81.90
5392;DHT22;2719;53.624;9.786;2023-04-03T15:33:22;11.60;85.30
5392;DHT22;2719;53.624;9.786;2023-04-03T15:35:48;11.60;84.20
5392;DHT22;2719;53.624;9.786;2023-04-03T15:38:16;11.20;84.70
5392;DHT22;2719;53.624;9.786;2023-04-03T15:40:43;11.10;86.00
5392;DHT22;2719;53.624;9.786;2023-04-03T15:43:13;10.90;86.50
5392;DHT22;2719;53.624;9.786;2023-04-03T15:45:40;10.60;87.80
5392;DHT22;2719;53.624;9.786;2023-04-03T15:48:08;10.70;88.30
5392;DHT22;2719;53.624;9.786;2023-04-03T15:50:35;10.50;88.60
5392;DHT22;2719;53.624;9.786;2023-04-03T15:53:01;10.30;88.60
5392;DHT22;2719;53.624;9.786;2023-04-03T15:55:31;10.00;88.50
5392;DHT22;2719;53.624;9.786;2023-04-03T15:57:58;10.00;89.40
5392;DHT22;2719;53.624;9.786;2023-04-03T16:00:26;10.20;89.80
5392;DHT22;2719;53.624;9.786;2023-04-03T16:02:57;10.40;90.30
5392;DHT22;2719;53.624;9.786;2023-04-03T16:05:25;10.40;89.90
5392;DHT22;2719;53.624;9.786;2023-04-03T16:07:52;10.40;89.00
5392;DHT22;2719;53.624;9.786;2023-04-03T16:10:19;10.20;87.50
5392;DHT22;2719;53.624;9.786;2023-04-03T16:12:47;10.30;87.50
5392;DHT22;2719;53.624;9.786;2023-04-03T16:15:13;10.20;88.20
5392;DHT22;2719;53.624;9.786;2023-04-03T16:17:40;10.20;88.40
5392;DHT22;2719;53.624;9.786;2023-04-03T16:20:09;10.30;88.70
5392;DHT22;2719;53.624;9.786;2023-04-03T16:22:37;10.20;88.20
5392;DHT22;2719;53.624;9.786;2023-04-03T16:25:05;10.20;88.40
5392;DHT22;2719;53.624;9.786;2023-04-03T16:27:32;10.40;89.00
5392;DHT22;2719;53.624;9.786;2023-04-03T16:30:00;10.50;88.70
5392;DHT22;2719;53.624;9.786;2023-04-03T16:32:29;10.50;88.60
5392;DHT22;2719;53.624;9.786;2023-04-03T16:34:57;10.30;88.60
5392;DHT22;2719;53.624;9.786;2023-04-03T16:37:24;10.30;88.70